sensor_id;sensor_type;location;lat;lon;timestamp;P1;durP1;ratioP1;P2;durP2;ratioP2
42518;SDS011;28147;47.520;18.920;2024-01-30T00:00:10;8.90;;;4.70;;
42518;SDS011;28147;47.520;18.920;2024-01-30T00:02:35;7.85;;;4.47;;
42518;SDS011;28147;47.520;18.920;2024-01-30T00:50:11;7.13;;;4.07;;
42518;SDS011;28147;47.520;18.920;2024-01-30T01:01:03;7.28;;;3.78;;
42518;SDS011;28147;47.520;18.920;2024-01-30T01:08:15;7.68;;;4.03;;
42518;SDS011;28147;47.520;18.920;2024-01-30T01:22:53;7.95;;;3.50;;
42518;SDS011;28147;47.520;18.920;2024-01-30T01:25:19;9.13;;;4.32;;
42518;SDS011;28147;47.520;18.920;2024-01-30T03:09:21;9.10;;;5.03;;
42518;SDS011;28147;47.520;18.920;2024-01-30T03:11:47;9.40;;;3.92;;
42518;SDS011;28147;47.520;18.920;2024-01-30T03:15:11;6.57;;;3.45;;
42518;SDS011;28147;47.520;18.920;2024-01-30T03:19:40;9.80;;;4.30;;
42518;SDS011;28147;47.520;18.920;2024-01-30T03:22:06;7.30;;;4.30;;
42518;SDS011;28147;47.520;18.920;2024-01-30T03:24:31;9.90;;;4.75;;
42518;SDS011;28147;47.520;18.920;2024-01-30T03:30:58;7.75;;;3.92;;
42518;SDS011;28147;47.520;18.920;2024-01-30T03:37:02;8.77;;;3.83;;
42518;SDS011;28147;47.520;18.920;2024-01-30T03:50:12;6.55;;;3.40;;
42518;SDS011;28147;47.520;18.920;2024-01-30T03:52:37;9.68;;;4.90;;
42518;SDS011;28147;47.520;18.920;2024-01-30T04:26:06;9.57;;;4.15;;
42518;SDS011;28147;47.520;18.920;2024-01-30T04:48:44;8.40;;;4.32;;
42518;SDS011;28147;47.520;18.920;2024-01-30T06:41:29;7.90;;;4.05;;
42518;SDS011;28147;47.520;18.920;2024-01-30T06:57:21;7.57;;;4.18;;
42518;SDS011;28147;47.520;18.920;2024-01-30T07:22:32;9.90;;;4.93;;
42518;SDS011;28147;47.520;18.920;2024-01-30T07:25:29;8.82;;;4.65;;
42518;SDS011;28147;47.520;18.920;2024-01-30T07:27:55;11.35;;;5.45;;
42518;SDS011;28147;47.520;18.920;2024-01-30T07:30:21;9.35;;;4.57;;
42518;SDS011;28147;47.520;18.920;2024-01-30T07:32:55;11.13;;;5.47;;
42518;SDS011;28147;47.520;18.920;2024-01-30T07:35:20;10.98;;;5.22;;
42518;SDS011;28147;47.520;18.920;2024-01-30T07:40:03;10.63;;;5.75;;
42518;SDS011;28147;47.520;18.920;2024-01-30T07:42:40;10.13;;;4.53;;
42518;SDS011;28147;47.520;18.920;2024-01-30T07:45:05;11.80;;;5.18;;
42518;SDS011;28147;47.520;18.920;2024-01-30T07:47:30;9.63;;;5.13;;
42518;SDS011;28147;47.520;18.920;2024-01-30T07:49:56;9.15;;;4.57;;
42518;SDS011;28147;47.520;18.920;2024-01-30T07:52:21;10.15;;;4.80;;
42518;SDS011;28147;47.520;18.920;2024-01-30T07:56:57;8.18;;;4.10;;
42518;SDS011;28147;47.520;18.920;2024-01-30T07:59:22;9.95;;;5.00;;
42518;SDS011;28147;47.520;18.920;2024-01-30T08:01:49;9.73;;;4.75;;
42518;SDS011;28147;47.520;18.920;2024-01-30T08:04:15;10.13;;;5.20;;
42518;SDS011;28147;47.520;18.920;2024-01-30T08:06:40;12.05;;;5.40;;
42518;SDS011;28147;47.520;18.920;2024-01-30T08:09:14;11.50;;;5.05;;
42518;SDS011;28147;47.520;18.920;2024-01-30T08:11:39;10.18;;;5.20;;
42518;SDS011;28147;47.520;18.920;2024-01-30T08:14:05;13.48;;;5.88;;
42518;SDS011;28147;47.520;18.920;2024-01-30T08:16:30;8.50;;;4.93;;
42518;SDS011;28147;47.520;18.920;2024-01-30T08:18:55;13.35;;;6.35;;
42518;SDS011;28147;47.520;18.920;2024-01-30T08:21:22;11.10;;;5.90;;
42518;SDS011;28147;47.520;18.920;2024-01-30T08:23:47;11.25;;;5.70;;
42518;SDS011;28147;47.520;18.920;2024-01-30T08:26:13;13.23;;;7.05;;
42518;SDS011;28147;47.520;18.920;2024-01-30T08:28:38;13.65;;;6.65;;
42518;SDS011;28147;47.520;18.920;2024-01-30T08:31:03;11.63;;;6.30;;
42518;SDS011;28147;47.520;18.920;2024-01-30T08:33:29;13.45;;;6.68;;
42518;SDS011;28147;47.520;18.920;2024-01-30T08:35:54;18.88;;;6.97;;
42518;SDS011;28147;47.520;18.920;2024-01-30T08:38:19;14.82;;;8.13;;
42518;SDS011;28147;47.520;18.920;2024-01-30T08:40:45;11.07;;;6.88;;
42518;SDS011;28147;47.520;18.920;2024-01-30T08:43:10;16.95;;;6.95;;
42518;SDS011;28147;47.520;18.920;2024-01-30T08:45:36;17.95;;;8.57;;
42518;SDS011;28147;47.520;18.920;2024-01-30T08:48:01;12.38;;;7.22;;
42518;SDS011;28147;47.520;18.920;2024-01-30T08:50:26;16.70;;;8.02;;
42518;SDS011;28147;47.520;18.920;2024-01-30T08:52:52;13.00;;;7.10;;
42518;SDS011;28147;47.520;18.920;2024-01-30T08:55:17;14.70;;;8.23;;
42518;SDS011;28147;47.520;18.920;2024-01-30T08:59:17;13.77;;;7.97;;
42518;SDS011;28147;47.520;18.920;2024-01-30T09:01:43;14.32;;;6.97;;
42518;SDS011;28147;47.520;18.920;2024-01-30T09:04:08;16.92;;;8.48;;
42518;SDS011;28147;47.520;18.920;2024-01-30T09:06:33;14.93;;;8.07;;
42518;SDS011;28147;47.520;18.920;2024-01-30T09:08:58;15.38;;;7.53;;
42518;SDS011;28147;47.520;18.920;2024-01-30T09:11:24;17.85;;;7.53;;
42518;SDS011;28147;47.520;18.920;2024-01-30T09:13:49;13.45;;;6.93;;
42518;SDS011;28147;47.520;18.920;2024-01-30T09:16:14;14.07;;;7.22;;
42518;SDS011;28147;47.520;18.920;2024-01-30T09:23:08;18.48;;;8.38;;
42518;SDS011;28147;47.520;18.920;2024-01-30T09:25:33;15.18;;;7.60;;
42518;SDS011;28147;47.520;18.920;2024-01-30T09:27:59;15.25;;;7.55;;
42518;SDS011;28147;47.520;18.920;2024-01-30T09:30:24;17.55;;;8.80;;
42518;SDS011;28147;47.520;18.920;2024-01-30T09:32:50;20.15;;;8.75;;
42518;SDS011;28147;47.520;18.920;2024-01-30T09:35:15;13.57;;;7.55;;
42518;SDS011;28147;47.520;18.920;2024-01-30T09:37:40;15.50;;;8.30;;
42518;SDS011;28147;47.520;18.920;2024-01-30T09:40:06;16.23;;;7.75;;
42518;SDS011;28147;47.520;18.920;2024-01-30T09:42:35;14.23;;;7.45;;
42518;SDS011;28147;47.520;18.920;2024-01-30T09:45:02;14.38;;;7.68;;
42518;SDS011;28147;47.520;18.920;2024-01-30T09:47:31;16.88;;;8.52;;
42518;SDS011;28147;47.520;18.920;2024-01-30T09:49:57;16.83;;;7.57;;
42518;SDS011;28147;47.520;18.920;2024-01-30T09:52:23;13.95;;;7.60;;
42518;SDS011;28147;47.520;18.920;2024-01-30T09:54:49;13.57;;;7.50;;
42518;SDS011;28147;47.520;18.920;2024-01-30T09:57:16;15.25;;;7.18;;
42518;SDS011;28147;47.520;18.920;2024-01-30T09:59:42;14.77;;;7.63;;
42518;SDS011;28147;47.520;18.920;2024-01-30T10:02:08;14.25;;;7.38;;
42518;SDS011;28147;47.520;18.920;2024-01-30T10:04:34;13.55;;;6.82;;
42518;SDS011;28147;47.520;18.920;2024-01-30T10:07:01;13.02;;;6.40;;
42518;SDS011;28147;47.520;18.920;2024-01-30T10:09:27;14.90;;;8.18;;
42518;SDS011;28147;47.520;18.920;2024-01-30T10:11:52;14.38;;;7.60;;
42518;SDS011;28147;47.520;18.920;2024-01-30T10:14:18;14.98;;;7.30;;
42518;SDS011;28147;47.520;18.920;2024-01-30T10:16:45;16.30;;;7.40;;
42518;SDS011;28147;47.520;18.920;2024-01-30T10:19:11;15.60;;;7.65;;
42518;SDS011;28147;47.520;18.920;2024-01-30T10:21:36;16.23;;;7.22;;
42518;SDS011;28147;47.520;18.920;2024-01-30T10:24:02;21.98;;;8.52;;
42518;SDS011;28147;47.520;18.920;2024-01-30T10:26:27;15.48;;;7.70;;
42518;SDS011;28147;47.520;18.920;2024-01-30T10:28:54;15.45;;;8.38;;
42518;SDS011;28147;47.520;18.920;2024-01-30T10:31:19;21.65;;;10.38;;
42518;SDS011;28147;47.520;18.920;2024-01-30T10:33:45;15.70;;;8.10;;
42518;SDS011;28147;47.520;18.920;2024-01-30T10:36:13;17.77;;;8.30;;
42518;SDS011;28147;47.520;18.920;2024-01-30T10:38:42;19.63;;;8.82;;
42518;SDS011;28147;47.520;18.920;2024-01-30T10:41:08;15.20;;;8.20;;
42518;SDS011;28147;47.520;18.920;2024-01-30T10:43:40;14.23;;;7.07;;
42518;SDS011;28147;47.520;18.920;2024-01-30T10:46:10;12.02;;;7.20;;
42518;SDS011;28147;47.520;18.920;2024-01-30T10:48:41;13.25;;;7.07;;
42518;SDS011;28147;47.520;18.920;2024-01-30T10:51:09;20.90;;;8.75;;
42518;SDS011;28147;47.520;18.920;2024-01-30T10:53:36;15.20;;;8.98;;
42518;SDS011;28147;47.520;18.920;2024-01-30T10:56:02;13.82;;;8.13;;
42518;SDS011;28147;47.520;18.920;2024-01-30T10:58:29;15.65;;;8.60;;
42518;SDS011;28147;47.520;18.920;2024-01-30T11:00:55;17.50;;;9.65;;
42518;SDS011;28147;47.520;18.920;2024-01-30T11:03:21;16.70;;;8.95;;
42518;SDS011;28147;47.520;18.920;2024-01-30T11:05:51;17.55;;;9.05;;
42518;SDS011;28147;47.520;18.920;2024-01-30T11:08:26;21.00;;;9.55;;
42518;SDS011;28147;47.520;18.920;2024-01-30T11:13:29;17.98;;;10.23;;
42518;SDS011;28147;47.520;18.920;2024-01-30T11:16:51;19.50;;;10.02;;
42518;SDS011;28147;47.520;18.920;2024-01-30T11:19:23;20.80;;;10.73;;
42518;SDS011;28147;47.520;18.920;2024-01-30T11:21:50;19.77;;;10.50;;
42518;SDS011;28147;47.520;18.920;2024-01-30T11:24:21;15.82;;;9.13;;
42518;SDS011;28147;47.520;18.920;2024-01-30T11:31:03;15.90;;;8.98;;
42518;SDS011;28147;47.520;18.920;2024-01-30T11:35:36;17.85;;;8.98;;
42518;SDS011;28147;47.520;18.920;2024-01-30T11:38:04;16.40;;;9.23;;
42518;SDS011;28147;47.520;18.920;2024-01-30T11:40:31;17.85;;;9.55;;
42518;SDS011;28147;47.520;18.920;2024-01-30T11:42:57;14.75;;;8.02;;
42518;SDS011;28147;47.520;18.920;2024-01-30T11:45:26;16.50;;;8.07;;
42518;SDS011;28147;47.520;18.920;2024-01-30T11:47:52;16.48;;;8.32;;
42518;SDS011;28147;47.520;18.920;2024-01-30T11:50:18;15.40;;;8.20;;
42518;SDS011;28147;47.520;18.920;2024-01-30T11:52:43;23.33;;;10.07;;
42518;SDS011;28147;47.520;18.920;2024-01-30T11:55:09;18.23;;;9.55;;
42518;SDS011;28147;47.520;18.920;2024-01-30T11:58:13;17.23;;;9.10;;
42518;SDS011;28147;47.520;18.920;2024-01-30T12:00:38;14.32;;;8.35;;
42518;SDS011;28147;47.520;18.920;2024-01-30T12:03:04;13.38;;;7.65;;
42518;SDS011;28147;47.520;18.920;2024-01-30T12:06:30;18.73;;;9.00;;
42518;SDS011;28147;47.520;18.920;2024-01-30T12:08:59;15.38;;;8.18;;
42518;SDS011;28147;47.520;18.920;2024-01-30T12:11:26;11.93;;;7.30;;
42518;SDS011;28147;47.520;18.920;2024-01-30T12:13:52;15.43;;;7.78;;
42518;SDS011;28147;47.520;18.920;2024-01-30T12:16:18;13.10;;;7.13;;
42518;SDS011;28147;47.520;18.920;2024-01-30T12:18:44;13.43;;;6.95;;
42518;SDS011;28147;47.520;18.920;2024-01-30T12:21:10;15.80;;;6.88;;
42518;SDS011;28147;47.520;18.920;2024-01-30T12:23:35;12.63;;;6.88;;
42518;SDS011;28147;47.520;18.920;2024-01-30T12:26:01;13.52;;;7.40;;
42518;SDS011;28147;47.520;18.920;2024-01-30T12:28:27;12.48;;;6.60;;
42518;SDS011;28147;47.520;18.920;2024-01-30T12:32:57;17.92;;;8.57;;
42518;SDS011;28147;47.520;18.920;2024-01-30T12:36:35;13.55;;;7.15;;
42518;SDS011;28147;47.520;18.920;2024-01-30T12:39:01;13.77;;;6.82;;
42518;SDS011;28147;47.520;18.920;2024-01-30T12:41:56;12.35;;;6.30;;
42518;SDS011;28147;47.520;18.920;2024-01-30T12:44:22;13.27;;;6.40;;
42518;SDS011;28147;47.520;18.920;2024-01-30T12:47:11;13.60;;;7.13;;
42518;SDS011;28147;47.520;18.920;2024-01-30T12:49:37;13.80;;;6.47;;
42518;SDS011;28147;47.520;18.920;2024-01-30T12:52:02;11.48;;;6.53;;
42518;SDS011;28147;47.520;18.920;2024-01-30T12:56:20;10.43;;;6.13;;
42518;SDS011;28147;47.520;18.920;2024-01-30T12:58:45;11.52;;;5.97;;
42518;SDS011;28147;47.520;18.920;2024-01-30T13:01:10;13.85;;;6.32;;
42518;SDS011;28147;47.520;18.920;2024-01-30T13:03:36;15.13;;;6.35;;
42518;SDS011;28147;47.520;18.920;2024-01-30T13:06:01;7.45;;;4.63;;
42518;SDS011;28147;47.520;18.920;2024-01-30T13:08:27;8.02;;;4.30;;
42518;SDS011;28147;47.520;18.920;2024-01-30T13:10:52;8.25;;;3.90;;
42518;SDS011;28147;47.520;18.920;2024-01-30T13:13:17;9.35;;;3.70;;
42518;SDS011;28147;47.520;18.920;2024-01-30T13:15:43;8.55;;;3.97;;
42518;SDS011;28147;47.520;18.920;2024-01-30T13:18:08;8.30;;;3.88;;
42518;SDS011;28147;47.520;18.920;2024-01-30T13:20:33;7.05;;;3.70;;
42518;SDS011;28147;47.520;18.920;2024-01-30T13:22:59;8.77;;;4.45;;
42518;SDS011;28147;47.520;18.920;2024-01-30T13:25:24;7.97;;;4.10;;
42518;SDS011;28147;47.520;18.920;2024-01-30T13:28:32;14.68;;;6.45;;
42518;SDS011;28147;47.520;18.920;2024-01-30T13:30:58;22.60;;;9.48;;
42518;SDS011;28147;47.520;18.920;2024-01-30T13:33:34;9.95;;;4.00;;
42518;SDS011;28147;47.520;18.920;2024-01-30T13:35:59;10.52;;;3.92;;
42518;SDS011;28147;47.520;18.920;2024-01-30T13:39:23;6.90;;;3.67;;
42518;SDS011;28147;47.520;18.920;2024-01-30T13:41:59;11.15;;;3.90;;
42518;SDS011;28147;47.520;18.920;2024-01-30T13:44:24;7.75;;;4.30;;
42518;SDS011;28147;47.520;18.920;2024-01-30T13:48:54;6.10;;;3.38;;
42518;SDS011;28147;47.520;18.920;2024-01-30T13:51:33;9.80;;;5.00;;
42518;SDS011;28147;47.520;18.920;2024-01-30T13:54:52;7.70;;;4.10;;
42518;SDS011;28147;47.520;18.920;2024-01-30T13:57:18;8.30;;;3.72;;
42518;SDS011;28147;47.520;18.920;2024-01-30T14:00:14;7.90;;;4.60;;
42518;SDS011;28147;47.520;18.920;2024-01-30T14:02:41;7.90;;;4.13;;
42518;SDS011;28147;47.520;18.920;2024-01-30T14:07:05;9.85;;;5.00;;
42518;SDS011;28147;47.520;18.920;2024-01-30T14:09:31;10.00;;;5.15;;
42518;SDS011;28147;47.520;18.920;2024-01-30T14:11:57;12.00;;;4.68;;
42518;SDS011;28147;47.520;18.920;2024-01-30T14:15:12;10.82;;;5.05;;
42518;SDS011;28147;47.520;18.920;2024-01-30T14:17:42;10.07;;;5.25;;
42518;SDS011;28147;47.520;18.920;2024-01-30T14:21:35;9.73;;;5.13;;
42518;SDS011;28147;47.520;18.920;2024-01-30T14:26:42;8.57;;;4.65;;
42518;SDS011;28147;47.520;18.920;2024-01-30T14:29:07;11.07;;;4.95;;
42518;SDS011;28147;47.520;18.920;2024-01-30T14:31:33;8.85;;;5.22;;
42518;SDS011;28147;47.520;18.920;2024-01-30T14:33:58;10.77;;;5.22;;
42518;SDS011;28147;47.520;18.920;2024-01-30T14:38:10;10.32;;;5.10;;
42518;SDS011;28147;47.520;18.920;2024-01-30T14:43:47;9.80;;;5.68;;
42518;SDS011;28147;47.520;18.920;2024-01-30T14:48:40;7.80;;;4.32;;
42518;SDS011;28147;47.520;18.920;2024-01-30T14:57:22;9.15;;;4.82;;
42518;SDS011;28147;47.520;18.920;2024-01-30T15:03:21;13.90;;;6.80;;
42518;SDS011;28147;47.520;18.920;2024-01-30T15:05:47;14.43;;;7.10;;
42518;SDS011;28147;47.520;18.920;2024-01-30T15:08:12;14.30;;;6.57;;
42518;SDS011;28147;47.520;18.920;2024-01-30T15:34:15;16.67;;;7.78;;
42518;SDS011;28147;47.520;18.920;2024-01-30T15:36:40;12.68;;;7.50;;
42518;SDS011;28147;47.520;18.920;2024-01-30T15:40:53;11.95;;;6.82;;
42518;SDS011;28147;47.520;18.920;2024-01-30T15:52:25;14.50;;;7.72;;
42518;SDS011;28147;47.520;18.920;2024-01-30T16:05:58;12.45;;;6.82;;
42518;SDS011;28147;47.520;18.920;2024-01-30T16:36:55;14.23;;;7.57;;
42518;SDS011;28147;47.520;18.920;2024-01-30T17:06:55;19.05;;;9.05;;
42518;SDS011;28147;47.520;18.920;2024-01-30T17:16:35;18.05;;;8.23;;
42518;SDS011;28147;47.520;18.920;2024-01-30T17:20:19;31.08;;;12.07;;
42518;SDS011;28147;47.520;18.920;2024-01-30T17:31:23;16.90;;;9.60;;
42518;SDS011;28147;47.520;18.920;2024-01-30T17:39:25;17.88;;;9.70;;
42518;SDS011;28147;47.520;18.920;2024-01-30T19:02:47;23.75;;;12.70;;
42518;SDS011;28147;47.520;18.920;2024-01-30T19:25:25;25.80;;;11.73;;
42518;SDS011;28147;47.520;18.920;2024-01-30T19:43:25;19.80;;;11.30;;
42518;SDS011;28147;47.520;18.920;2024-01-30T19:45:50;18.98;;;10.57;;
42518;SDS011;28147;47.520;18.920;2024-01-30T19:51:06;24.60;;;12.63;;
42518;SDS011;28147;47.520;18.920;2024-01-30T19:57:08;22.10;;;11.27;;
42518;SDS011;28147;47.520;18.920;2024-01-30T20:01:04;20.67;;;11.68;;
42518;SDS011;28147;47.520;18.920;2024-01-30T20:05:29;20.58;;;12.05;;
42518;SDS011;28147;47.520;18.920;2024-01-30T20:29:09;24.08;;;12.75;;
42518;SDS011;28147;47.520;18.920;2024-01-30T20:39:50;22.83;;;11.98;;
42518;SDS011;28147;47.520;18.920;2024-01-30T20:44:15;18.83;;;10.43;;
42518;SDS011;28147;47.520;18.920;2024-01-30T20:50:09;20.38;;;10.65;;
42518;SDS011;28147;47.520;18.920;2024-01-30T20:52:35;23.13;;;11.25;;
42518;SDS011;28147;47.520;18.920;2024-01-30T20:55:00;18.90;;;11.20;;
42518;SDS011;28147;47.520;18.920;2024-01-30T21:03:09;18.52;;;10.10;;
42518;SDS011;28147;47.520;18.920;2024-01-30T21:05:35;22.33;;;10.38;;
42518;SDS011;28147;47.520;18.920;2024-01-30T21:08:02;21.42;;;10.77;;
42518;SDS011;28147;47.520;18.920;2024-01-30T22:09:43;22.27;;;11.63;;
42518;SDS011;28147;47.520;18.920;2024-01-30T22:19:13;19.10;;;10.63;;
42518;SDS011;28147;47.520;18.920;2024-01-30T22:27:19;18.55;;;10.23;;
42518;SDS011;28147;47.520;18.920;2024-01-30T22:32:26;21.30;;;11.52;;
42518;SDS011;28147;47.520;18.920;2024-01-30T22:43:02;18.73;;;10.80;;
42518;SDS011;28147;47.520;18.920;2024-01-30T23:04:26;19.67;;;10.35;;
